sensor_id;sensor_type;location;lat;lon;timestamp;temperature;humidity
13174;DHT22;6652;48.802;9.190;2024-02-14T04:58:47;5.50;99.90
13174;DHT22;6652;48.802;9.190;2024-02-14T05:01:16;5.70;99.90
13174;DHT22;6652;48.802;9.190;2024-02-14T05:03:46;5.70;99.90
13174;DHT22;6652;48.802;9.190;2024-02-14T05:06:15;5.50;99.90
13174;DHT22;6652;48.802;9.190;2024-02-14T05:12:27;5.80;99.90
13174;DHT22;6652;48.802;9.190;2024-02-14T05:15:20;5.70;99.90
13174;DHT22;6652;48.802;9.190;2024-02-14T05:18:03;6.30;99.90
13174;DHT22;6652;48.802;9.190;2024-02-14T05:20:38;5.70;99.90
13174;DHT22;6652;48.802;9.190;2024-02-14T05:23:28;5.70;99.90
13174;DHT22;6652;48.802;9.190;2024-02-14T05:26:13;5.90;99.90
13174;DHT22;6652;48.802;9.190;2024-02-14T05:28:55;5.80;99.90
13174;DHT22;6652;48.802;9.190;2024-02-14T05:41:41;5.80;99.90
13174;DHT22;6652;48.802;9.190;2024-02-14T05:45:01;5.90;99.90
13174;DHT22;6652;48.802;9.190;2024-02-14T05:47:44;5.90;99.90
13174;DHT22;6652;48.802;9.190;2024-02-14T05:50:33;5.90;99.90
13174;DHT22;6652;48.802;9.190;2024-02-14T07:00:25;6.00;99.90
13174;DHT22;6652;48.802;9.190;2024-02-14T07:03:42;6.00;99.90
13174;DHT22;6652;48.802;9.190;2024-02-14T07:06:36;6.00;99.90
13174;DHT22;6652;48.802;9.190;2024-02-14T07:09:31;5.80;99.90
13174;DHT22;6652;48.802;9.190;2024-02-14T07:28:16;6.40;99.90
13174;DHT22;6652;48.802;9.190;2024-02-14T07:31:03;5.80;99.90
13174;DHT22;6652;48.802;9.190;2024-02-14T07:37:23;6.90;99.90
13174;DHT22;6652;48.802;9.190;2024-02-14T07:40:06;6.40;99.90
13174;DHT22;6652;48.802;9.190;2024-02-14T07:42:51;6.50;99.90
13174;DHT22;6652;48.802;9.190;2024-02-14T07:48:49;6.70;99.90
13174;DHT22;6652;48.802;9.190;2024-02-14T07:51:24;6.00;99.90
13174;DHT22;6652;48.802;9.190;2024-02-14T07:54:02;6.70;99.90
13174;DHT22;6652;48.802;9.190;2024-02-14T07:56:30;7.40;99.90
13174;DHT22;6652;48.802;9.190;2024-02-14T07:59:02;7.30;99.90
13174;DHT22;6652;48.802;9.190;2024-02-14T08:01:44;7.20;99.90
13174;DHT22;6652;48.802;9.190;2024-02-14T08:04:40;7.30;99.90
13174;DHT22;6652;48.802;9.190;2024-02-14T08:07:32;7.40;99.90
13174;DHT22;6652;48.802;9.190;2024-02-14T08:10:02;7.50;99.90
13174;DHT22;6652;48.802;9.190;2024-02-14T08:12:40;7.40;99.90
13174;DHT22;6652;48.802;9.190;2024-02-14T08:15:24;7.40;99.90
13174;DHT22;6652;48.802;9.190;2024-02-14T08:17:53;7.40;99.90
13174;DHT22;6652;48.802;9.190;2024-02-14T08:20:27;8.30;99.90
13174;DHT22;6652;48.802;9.190;2024-02-14T08:23:04;7.50;99.90
13174;DHT22;6652;48.802;9.190;2024-02-14T08:25:45;7.90;99.90
13174;DHT22;6652;48.802;9.190;2024-02-14T08:28:18;7.70;99.90
13174;DHT22;6652;48.802;9.190;2024-02-14T08:31:00;7.70;99.90
13174;DHT22;6652;48.802;9.190;2024-02-14T08:33:31;7.70;99.90
13174;DHT22;6652;48.802;9.190;2024-02-14T08:39:21;7.80;99.90
13174;DHT22;6652;48.802;9.190;2024-02-14T08:42:03;7.90;99.90
13174;DHT22;6652;48.802;9.190;2024-02-14T08:44:45;8.00;99.90
13174;DHT22;6652;48.802;9.190;2024-02-14T08:47:23;8.20;99.90
13174;DHT22;6652;48.802;9.190;2024-02-14T08:50:06;8.40;99.90
13174;DHT22;6652;48.802;9.190;2024-02-14T08:52:48;8.70;99.90
13174;DHT22;6652;48.802;9.190;2024-02-14T08:59:23;9.60;99.90
13174;DHT22;6652;48.802;9.190;2024-02-14T09:05:10;9.90;99.90
13174;DHT22;6652;48.802;9.190;2024-02-14T09:07:59;10.00;99.90
13174;DHT22;6652;48.802;9.190;2024-02-14T09:11:18;10.20;99.90
13174;DHT22;6652;48.802;9.190;2024-02-14T09:14:05;10.40;99.90
13174;DHT22;6652;48.802;9.190;2024-02-14T09:26:37;9.80;99.90
13174;DHT22;6652;48.802;9.190;2024-02-14T09:29:22;9.70;99.90
13174;DHT22;6652;48.802;9.190;2024-02-14T09:32:11;9.70;99.90
13174;DHT22;6652;48.802;9.190;2024-02-14T09:38:27;9.80;99.90
13174;DHT22;6652;48.802;9.190;2024-02-14T09:54:33;11.20;99.90
13174;DHT22;6652;48.802;9.190;2024-02-14T09:57:55;11.70;99.90
13174;DHT22;6652;48.802;9.190;2024-02-14T10:00:56;11.70;99.90
13174;DHT22;6652;48.802;9.190;2024-02-14T10:04:14;12.20;99.90
13174;DHT22;6652;48.802;9.190;2024-02-14T10:07:24;11.90;99.90
13174;DHT22;6652;48.802;9.190;2024-02-14T10:29:52;17.20;99.90
13174;DHT22;6652;48.802;9.190;2024-02-14T10:32:41;17.50;99.90
13174;DHT22;6652;48.802;9.190;2024-02-14T10:35:22;19.00;99.90
13174;DHT22;6652;48.802;9.190;2024-02-14T10:38:26;20.20;99.90
13174;DHT22;6652;48.802;9.190;2024-02-14T10:41:40;21.30;98.70
13174;DHT22;6652;48.802;9.190;2024-02-14T10:44:28;21.30;97.10
13174;DHT22;6652;48.802;9.190;2024-02-14T17:05:24;14.00;99.90
13174;DHT22;6652;48.802;9.190;2024-02-14T17:08:06;14.00;99.90
13174;DHT22;6652;48.802;9.190;2024-02-14T17:10:35;14.00;99.90
13174;DHT22;6652;48.802;9.190;2024-02-14T17:13:06;14.00;99.90
13174;DHT22;6652;48.802;9.190;2024-02-14T17:15:47;14.00;99.90
13174;DHT22;6652;48.802;9.190;2024-02-14T17:18:28;14.40;99.90
13174;DHT22;6652;48.802;9.190;2024-02-14T17:21:10;14.00;99.90
13174;DHT22;6652;48.802;9.190;2024-02-14T17:23:39;13.90;99.90
13174;DHT22;6652;48.802;9.190;2024-02-14T17:26:08;13.90;99.90
13174;DHT22;6652;48.802;9.190;2024-02-14T17:28:49;13.90;99.90
13174;DHT22;6652;48.802;9.190;2024-02-14T17:31:30;14.30;99.90
13174;DHT22;6652;48.802;9.190;2024-02-14T17:34:08;13.80;99.90
13174;DHT22;6652;48.802;9.190;2024-02-14T17:36:42;14.10;99.90
13174;DHT22;6652;48.802;9.190;2024-02-14T17:39:14;13.90;99.90
13174;DHT22;6652;48.802;9.190;2024-02-14T17:41:43;13.80;99.90
13174;DHT22;6652;48.802;9.190;2024-02-14T17:44:11;14.40;99.90
13174;DHT22;6652;48.802;9.190;2024-02-14T17:46:52;13.80;99.90
13174;DHT22;6652;48.802;9.190;2024-02-14T17:49:27;13.80;99.90
13174;DHT22;6652;48.802;9.190;2024-02-14T17:52:15;13.80;99.90
13174;DHT22;6652;48.802;9.190;2024-02-14T17:54:50;13.70;99.90
13174;DHT22;6652;48.802;9.190;2024-02-14T17:57:32;14.10;99.90
13174;DHT22;6652;48.802;9.190;2024-02-14T18:00:04;13.80;99.90
13174;DHT22;6652;48.802;9.190;2024-02-14T18:02:37;13.70;99.90
13174;DHT22;6652;48.802;9.190;2024-02-14T18:05:12;13.70;99.90
13174;DHT22;6652;48.802;9.190;2024-02-14T18:07:50;13.70;99.90
13174;DHT22;6652;48.802;9.190;2024-02-14T18:10:19;13.70;99.90
13174;DHT22;6652;48.802;9.190;2024-02-14T18:12:47;13.70;99.90
13174;DHT22;6652;48.802;9.190;2024-02-14T18:15:14;13.70;99.90
13174;DHT22;6652;48.802;9.190;2024-02-14T18:17:41;13.70;99.90
13174;DHT22;6652;48.802;9.190;2024-02-14T18:20:09;13.70;99.90
13174;DHT22;6652;48.802;9.190;2024-02-14T18:22:55;13.70;99.90
13174;DHT22;6652;48.802;9.190;2024-02-14T18:25:22;13.70;99.90
13174;DHT22;6652;48.802;9.190;2024-02-14T18:27:51;13.70;99.90
13174;DHT22;6652;48.802;9.190;2024-02-14T18:30:28;13.70;99.90
13174;DHT22;6652;48.802;9.190;2024-02-14T18:32:58;13.60;99.90
13174;DHT22;6652;48.802;9.190;2024-02-14T18:35:26;13.70;99.90
13174;DHT22;6652;48.802;9.190;2024-02-14T18:38:01;13.60;99.90
13174;DHT22;6652;48.802;9.190;2024-02-14T18:40:29;13.60;99.90
13174;DHT22;6652;48.802;9.190;2024-02-14T18:42:57;13.60;99.90
13174;DHT22;6652;48.802;9.190;2024-02-14T18:45:28;13.60;99.90
13174;DHT22;6652;48.802;9.190;2024-02-14T18:47:55;13.60;99.90
13174;DHT22;6652;48.802;9.190;2024-02-14T18:50:23;13.60;99.90
13174;DHT22;6652;48.802;9.190;2024-02-14T18:53:16;13.20;99.90
13174;DHT22;6652;48.802;9.190;2024-02-14T19:23:25;13.40;99.90
13174;DHT22;6652;48.802;9.190;2024-02-14T19:25:55;13.40;99.90
13174;DHT22;6652;48.802;9.190;2024-02-14T19:28:44;13.30;99.90
13174;DHT22;6652;48.802;9.190;2024-02-14T19:31:31;13.60;99.90
13174;DHT22;6652;48.802;9.190;2024-02-14T19:37:26;13.20;99.90
13174;DHT22;6652;48.802;9.190;2024-02-14T19:50:02;13.10;99.90
13174;DHT22;6652;48.802;9.190;2024-02-14T19:52:44;13.10;99.90
13174;DHT22;6652;48.802;9.190;2024-02-14T19:55:29;13.10;99.90
13174;DHT22;6652;48.802;9.190;2024-02-14T19:58:11;13.00;99.90
13174;DHT22;6652;48.802;9.190;2024-02-14T20:00:52;13.10;99.90
13174;DHT22;6652;48.802;9.190;2024-02-14T20:03:22;13.30;99.90
13174;DHT22;6652;48.802;9.190;2024-02-14T20:09:11;12.90;99.90
13174;DHT22;6652;48.802;9.190;2024-02-14T20:11:46;12.80;99.90
13174;DHT22;6652;48.802;9.190;2024-02-14T20:14:14;12.80;99.90
13174;DHT22;6652;48.802;9.190;2024-02-14T20:16:42;12.80;99.90
13174;DHT22;6652;48.802;9.190;2024-02-14T20:19:23;12.80;99.90
13174;DHT22;6652;48.802;9.190;2024-02-14T20:21:51;12.70;99.90
13174;DHT22;6652;48.802;9.190;2024-02-14T20:24:41;12.70;99.90
13174;DHT22;6652;48.802;9.190;2024-02-14T20:27:12;12.70;99.90
13174;DHT22;6652;48.802;9.190;2024-02-14T20:29:44;12.70;99.90
13174;DHT22;6652;48.802;9.190;2024-02-14T20:32:27;12.70;99.90
13174;DHT22;6652;48.802;9.190;2024-02-14T20:34:58;12.70;99.90
13174;DHT22;6652;48.802;9.190;2024-02-14T20:56:51;12.50;99.90
13174;DHT22;6652;48.802;9.190;2024-02-14T20:59:32;12.50;99.90
13174;DHT22;6652;48.802;9.190;2024-02-14T21:02:15;12.40;99.90
13174;DHT22;6652;48.802;9.190;2024-02-14T21:05:02;12.30;99.90
13174;DHT22;6652;48.802;9.190;2024-02-14T21:07:45;12.20;99.90
13174;DHT22;6652;48.802;9.190;2024-02-14T21:10:26;12.30;99.90
13174;DHT22;6652;48.802;9.190;2024-02-14T21:13:20;12.30;99.90
13174;DHT22;6652;48.802;9.190;2024-02-14T21:16:05;12.40;99.90
13174;DHT22;6652;48.802;9.190;2024-02-14T21:19:03;12.20;99.90
13174;DHT22;6652;48.802;9.190;2024-02-14T21:21:34;12.20;99.90
13174;DHT22;6652;48.802;9.190;2024-02-14T21:24:19;12.30;99.90
13174;DHT22;6652;48.802;9.190;2024-02-14T21:27:10;12.30;99.90
13174;DHT22;6652;48.802;9.190;2024-02-14T21:39:18;12.60;99.90
13174;DHT22;6652;48.802;9.190;2024-02-14T23:55:49;12.20;99.90
13174;DHT22;6652;48.802;9.190;2024-02-14T23:58:18;12.10;99.90
